sensor_id;sensor_type;location;lat;lon;timestamp;P1;durP1;ratioP1;P2;durP2;ratioP2
34775;SDS011;20989;52.566;13.346;2023-04-15T00:00:59;2.28;;;2.08;;
34775;SDS011;20989;52.566;13.346;2023-04-15T00:04:00;1.73;;;1.63;;
34775;SDS011;20989;52.566;13.346;2023-04-15T00:07:01;2.13;;;2.03;;
34775;SDS011;20989;52.566;13.346;2023-04-15T00:10:02;2.10;;;2.00;;
34775;SDS011;20989;52.566;13.346;2023-04-15T00:13:03;1.90;;;1.80;;
34775;SDS011;20989;52.566;13.346;2023-04-15T00:16:04;2.20;;;2.10;;
34775;SDS011;20989;52.566;13.346;2023-04-15T00:19:06;2.03;;;1.92;;
34775;SDS011;20989;52.566;13.346;2023-04-15T00:22:07;2.22;;;2.03;;
34775;SDS011;20989;52.566;13.346;2023-04-15T00:25:08;2.20;;;2.10;;
34775;SDS011;20989;52.566;13.346;2023-04-15T00:28:08;2.15;;;2.05;;
34775;SDS011;20989;52.566;13.346;2023-04-15T00:31:10;1.85;;;1.75;;
34775;SDS011;20989;52.566;13.346;2023-04-15T00:34:11;2.08;;;1.98;;
34775;SDS011;20989;52.566;13.346;2023-04-15T00:37:12;2.00;;;1.90;;
34775;SDS011;20989;52.566;13.346;2023-04-15T00:40:13;2.22;;;2.13;;
34775;SDS011;20989;52.566;13.346;2023-04-15T00:43:17;2.10;;;2.00;;
34775;SDS011;20989;52.566;13.346;2023-04-15T00:46:18;2.05;;;1.95;;
34775;SDS011;20989;52.566;13.346;2023-04-15T00:49:20;2.10;;;2.00;;
34775;SDS011;20989;52.566;13.346;2023-04-15T00:52:21;1.90;;;1.80;;
34775;SDS011;20989;52.566;13.346;2023-04-15T00:55:22;2.28;;;2.17;;
34775;SDS011;20989;52.566;13.346;2023-04-15T00:58:22;1.77;;;1.67;;
34775;SDS011;20989;52.566;13.346;2023-04-15T01:01:25;2.58;;;2.38;;
34775;SDS011;20989;52.566;13.346;2023-04-15T01:04:26;1.88;;;1.77;;
34775;SDS011;20989;52.566;13.346;2023-04-15T01:07:26;2.00;;;1.90;;
34775;SDS011;20989;52.566;13.346;2023-04-15T01:10:27;1.80;;;1.70;;
34775;SDS011;20989;52.566;13.346;2023-04-15T01:13:28;1.83;;;1.73;;
34775;SDS011;20989;52.566;13.346;2023-04-15T01:16:29;1.88;;;1.75;;
34775;SDS011;20989;52.566;13.346;2023-04-15T01:19:31;2.33;;;2.22;;
34775;SDS011;20989;52.566;13.346;2023-04-15T01:22:31;1.90;;;1.80;;
34775;SDS011;20989;52.566;13.346;2023-04-15T01:25:33;2.35;;;2.25;;
34775;SDS011;20989;52.566;13.346;2023-04-15T01:28:34;2.33;;;2.22;;
34775;SDS011;20989;52.566;13.346;2023-04-15T01:31:35;2.00;;;1.90;;
34775;SDS011;20989;52.566;13.346;2023-04-15T01:34:36;2.05;;;1.95;;
34775;SDS011;20989;52.566;13.346;2023-04-15T01:37:37;1.90;;;1.80;;
34775;SDS011;20989;52.566;13.346;2023-04-15T01:40:37;1.75;;;1.65;;
34775;SDS011;20989;52.566;13.346;2023-04-15T01:43:38;2.25;;;2.15;;
34775;SDS011;20989;52.566;13.346;2023-04-15T01:46:39;2.00;;;1.90;;
34775;SDS011;20989;52.566;13.346;2023-04-15T01:49:39;2.58;;;2.47;;
34775;SDS011;20989;52.566;13.346;2023-04-15T01:52:40;2.35;;;2.25;;
34775;SDS011;20989;52.566;13.346;2023-04-15T01:55:41;1.88;;;1.77;;
34775;SDS011;20989;52.566;13.346;2023-04-15T01:58:41;1.95;;;1.85;;
34775;SDS011;20989;52.566;13.346;2023-04-15T02:01:42;2.05;;;1.95;;
34775;SDS011;20989;52.566;13.346;2023-04-15T02:04:44;2.60;;;2.40;;
34775;SDS011;20989;52.566;13.346;2023-04-15T02:07:44;2.25;;;2.15;;
34775;SDS011;20989;52.566;13.346;2023-04-15T02:10:45;2.10;;;2.00;;
34775;SDS011;20989;52.566;13.346;2023-04-15T02:13:46;2.35;;;2.15;;
34775;SDS011;20989;52.566;13.346;2023-04-15T02:16:47;1.95;;;1.85;;
34775;SDS011;20989;52.566;13.346;2023-04-15T02:19:47;2.00;;;1.90;;
34775;SDS011;20989;52.566;13.346;2023-04-15T02:22:48;2.30;;;2.20;;
34775;SDS011;20989;52.566;13.346;2023-04-15T02:25:49;2.20;;;2.10;;
34775;SDS011;20989;52.566;13.346;2023-04-15T02:28:49;2.50;;;2.40;;
34775;SDS011;20989;52.566;13.346;2023-04-15T02:31:50;2.42;;;2.22;;
34775;SDS011;20989;52.566;13.346;2023-04-15T02:34:51;2.25;;;2.15;;
34775;SDS011;20989;52.566;13.346;2023-04-15T02:37:52;1.98;;;1.88;;
34775;SDS011;20989;52.566;13.346;2023-04-15T02:40:52;2.75;;;2.55;;
34775;SDS011;20989;52.566;13.346;2023-04-15T02:43:53;2.47;;;2.35;;
34775;SDS011;20989;52.566;13.346;2023-04-15T02:46:54;2.40;;;2.20;;
34775;SDS011;20989;52.566;13.346;2023-04-15T02:49:54;2.20;;;2.10;;
34775;SDS011;20989;52.566;13.346;2023-04-15T02:52:55;2.85;;;2.65;;
34775;SDS011;20989;52.566;13.346;2023-04-15T02:55:55;2.00;;;1.90;;
34775;SDS011;20989;52.566;13.346;2023-04-15T02:58:56;2.20;;;2.10;;
34775;SDS011;20989;52.566;13.346;2023-04-15T03:01:57;2.63;;;2.42;;
34775;SDS011;20989;52.566;13.346;2023-04-15T03:05:00;2.90;;;2.70;;
34775;SDS011;20989;52.566;13.346;2023-04-15T03:08:01;2.38;;;2.28;;
34775;SDS011;20989;52.566;13.346;2023-04-15T03:11:02;2.75;;;2.58;;
34775;SDS011;20989;52.566;13.346;2023-04-15T03:14:03;2.30;;;2.17;;
34775;SDS011;20989;52.566;13.346;2023-04-15T03:17:04;2.63;;;2.42;;
34775;SDS011;20989;52.566;13.346;2023-04-15T03:20:05;2.42;;;2.33;;
34775;SDS011;20989;52.566;13.346;2023-04-15T03:23:06;2.40;;;2.30;;
34775;SDS011;20989;52.566;13.346;2023-04-15T03:26:06;2.80;;;2.60;;
34775;SDS011;20989;52.566;13.346;2023-04-15T03:29:07;2.78;;;2.58;;
34775;SDS011;20989;52.566;13.346;2023-04-15T03:32:08;2.30;;;2.15;;
34775;SDS011;20989;52.566;13.346;2023-04-15T03:35:08;2.13;;;2.03;;
34775;SDS011;20989;52.566;13.346;2023-04-15T03:38:09;2.60;;;2.40;;
34775;SDS011;20989;52.566;13.346;2023-04-15T03:41:09;2.60;;;2.40;;
34775;SDS011;20989;52.566;13.346;2023-04-15T03:44:11;2.47;;;2.38;;
34775;SDS011;20989;52.566;13.346;2023-04-15T03:47:11;2.63;;;2.42;;
34775;SDS011;20989;52.566;13.346;2023-04-15T03:50:12;2.53;;;2.33;;
34775;SDS011;20989;52.566;13.346;2023-04-15T03:53:13;2.17;;;2.08;;
34775;SDS011;20989;52.566;13.346;2023-04-15T03:56:14;2.25;;;2.15;;
34775;SDS011;20989;52.566;13.346;2023-04-15T03:59:15;2.28;;;2.17;;
34775;SDS011;20989;52.566;13.346;2023-04-15T04:02:15;3.10;;;2.90;;
34775;SDS011;20989;52.566;13.346;2023-04-15T04:05:16;2.17;;;2.08;;
34775;SDS011;20989;52.566;13.346;2023-04-15T04:08:16;2.00;;;1.90;;
34775;SDS011;20989;52.566;13.346;2023-04-15T04:11:18;2.70;;;2.50;;
34775;SDS011;20989;52.566;13.346;2023-04-15T04:14:19;2.55;;;2.45;;
34775;SDS011;20989;52.566;13.346;2023-04-15T04:17:25;3.30;;;2.38;;
34775;SDS011;20989;52.566;13.346;2023-04-15T04:20:26;2.72;;;2.53;;
34775;SDS011;20989;52.566;13.346;2023-04-15T04:23:26;2.33;;;2.22;;
34775;SDS011;20989;52.566;13.346;2023-04-15T04:26:27;2.65;;;2.47;;
34775;SDS011;20989;52.566;13.346;2023-04-15T04:29:27;2.28;;;2.17;;
34775;SDS011;20989;52.566;13.346;2023-04-15T04:32:28;2.25;;;2.15;;
34775;SDS011;20989;52.566;13.346;2023-04-15T04:35:29;2.92;;;2.63;;
34775;SDS011;20989;52.566;13.346;2023-04-15T04:38:29;2.20;;;2.10;;
34775;SDS011;20989;52.566;13.346;2023-04-15T04:41:30;2.45;;;2.35;;
34775;SDS011;20989;52.566;13.346;2023-04-15T04:44:31;2.10;;;2.00;;
34775;SDS011;20989;52.566;13.346;2023-04-15T04:47:32;2.30;;;2.20;;
34775;SDS011;20989;52.566;13.346;2023-04-15T04:50:33;2.60;;;2.40;;
34775;SDS011;20989;52.566;13.346;2023-04-15T04:53:34;2.50;;;2.30;;
34775;SDS011;20989;52.566;13.346;2023-04-15T04:56:36;1.90;;;1.80;;
34775;SDS011;20989;52.566;13.346;2023-04-15T05:03:35;2.20;;;2.10;;
34775;SDS011;20989;52.566;13.346;2023-04-15T05:06:36;2.42;;;2.33;;
34775;SDS011;20989;52.566;13.346;2023-04-15T05:09:37;2.10;;;2.00;;
34775;SDS011;20989;52.566;13.346;2023-04-15T05:12:38;2.40;;;2.30;;
34775;SDS011;20989;52.566;13.346;2023-04-15T05:15:38;2.45;;;2.28;;
34775;SDS011;20989;52.566;13.346;2023-04-15T05:18:40;2.22;;;2.13;;
34775;SDS011;20989;52.566;13.346;2023-04-15T05:21:40;2.60;;;2.40;;
34775;SDS011;20989;52.566;13.346;2023-04-15T05:24:41;2.60;;;2.45;;
34775;SDS011;20989;52.566;13.346;2023-04-15T05:27:42;2.25;;;2.15;;
34775;SDS011;20989;52.566;13.346;2023-04-15T05:30:43;2.67;;;2.47;;
34775;SDS011;20989;52.566;13.346;2023-04-15T05:33:43;2.80;;;2.60;;
34775;SDS011;20989;52.566;13.346;2023-04-15T05:36:44;2.63;;;2.53;;
34775;SDS011;20989;52.566;13.346;2023-04-15T05:39:45;2.65;;;2.53;;
34775;SDS011;20989;52.566;13.346;2023-04-15T05:42:45;2.40;;;2.30;;
34775;SDS011;20989;52.566;13.346;2023-04-15T05:45:46;2.50;;;2.30;;
34775;SDS011;20989;52.566;13.346;2023-04-15T05:48:46;2.25;;;2.15;;
34775;SDS011;20989;52.566;13.346;2023-04-15T05:51:47;2.53;;;2.33;;
34775;SDS011;20989;52.566;13.346;2023-04-15T05:54:48;2.70;;;2.45;;
34775;SDS011;20989;52.566;13.346;2023-04-15T05:57:48;2.13;;;2.03;;
34775;SDS011;20989;52.566;13.346;2023-04-15T06:00:49;2.90;;;2.70;;
34775;SDS011;20989;52.566;13.346;2023-04-15T06:03:50;2.45;;;2.35;;
34775;SDS011;20989;52.566;13.346;2023-04-15T06:06:50;2.05;;;1.95;;
34775;SDS011;20989;52.566;13.346;2023-04-15T06:09:51;2.72;;;2.53;;
34775;SDS011;20989;52.566;13.346;2023-04-15T06:12:52;2.55;;;2.35;;
34775;SDS011;20989;52.566;13.346;2023-04-15T06:15:53;2.60;;;2.38;;
34775;SDS011;20989;52.566;13.346;2023-04-15T06:18:53;2.25;;;2.13;;
34775;SDS011;20989;52.566;13.346;2023-04-15T06:21:54;2.20;;;2.10;;
34775;SDS011;20989;52.566;13.346;2023-04-15T06:24:55;2.65;;;2.45;;
34775;SDS011;20989;52.566;13.346;2023-04-15T06:27:55;2.83;;;2.60;;
34775;SDS011;20989;52.566;13.346;2023-04-15T06:30:56;2.00;;;1.90;;
34775;SDS011;20989;52.566;13.346;2023-04-15T06:33:56;2.30;;;2.15;;
34775;SDS011;20989;52.566;13.346;2023-04-15T06:36:57;2.40;;;2.20;;
34775;SDS011;20989;52.566;13.346;2023-04-15T06:39:57;2.20;;;2.10;;
34775;SDS011;20989;52.566;13.346;2023-04-15T06:42:58;1.90;;;1.80;;
34775;SDS011;20989;52.566;13.346;2023-04-15T06:45:59;2.67;;;2.55;;
34775;SDS011;20989;52.566;13.346;2023-04-15T06:49:00;2.38;;;2.22;;
34775;SDS011;20989;52.566;13.346;2023-04-15T06:52:00;2.10;;;2.00;;
34775;SDS011;20989;52.566;13.346;2023-04-15T06:55:01;2.63;;;2.42;;
34775;SDS011;20989;52.566;13.346;2023-04-15T06:58:02;2.30;;;2.20;;
34775;SDS011;20989;52.566;13.346;2023-04-15T07:01:03;2.47;;;2.28;;
34775;SDS011;20989;52.566;13.346;2023-04-15T07:04:04;2.58;;;2.38;;
34775;SDS011;20989;52.566;13.346;2023-04-15T07:07:05;2.65;;;2.47;;
34775;SDS011;20989;52.566;13.346;2023-04-15T07:10:07;3.00;;;2.80;;
34775;SDS011;20989;52.566;13.346;2023-04-15T07:13:08;2.47;;;2.38;;
34775;SDS011;20989;52.566;13.346;2023-04-15T07:16:08;2.38;;;2.28;;
34775;SDS011;20989;52.566;13.346;2023-04-15T07:19:09;2.13;;;2.03;;
34775;SDS011;20989;52.566;13.346;2023-04-15T07:22:09;2.50;;;2.33;;
34775;SDS011;20989;52.566;13.346;2023-04-15T07:25:10;2.78;;;2.58;;
34775;SDS011;20989;52.566;13.346;2023-04-15T07:28:10;2.47;;;2.33;;
34775;SDS011;20989;52.566;13.346;2023-04-15T07:31:11;2.42;;;2.33;;
34775;SDS011;20989;52.566;13.346;2023-04-15T07:34:12;2.17;;;2.08;;
34775;SDS011;20989;52.566;13.346;2023-04-15T07:37:13;2.25;;;2.15;;
34775;SDS011;20989;52.566;13.346;2023-04-15T07:40:14;2.70;;;2.50;;
34775;SDS011;20989;52.566;13.346;2023-04-15T07:43:15;2.95;;;2.70;;
34775;SDS011;20989;52.566;13.346;2023-04-15T07:46:15;2.47;;;2.38;;
34775;SDS011;20989;52.566;13.346;2023-04-15T07:49:16;2.17;;;2.08;;
34775;SDS011;20989;52.566;13.346;2023-04-15T07:52:18;2.30;;;2.20;;
34775;SDS011;20989;52.566;13.346;2023-04-15T07:55:19;3.00;;;2.80;;
34775;SDS011;20989;52.566;13.346;2023-04-15T07:58:21;2.17;;;2.08;;
34775;SDS011;20989;52.566;13.346;2023-04-15T08:01:22;2.47;;;2.35;;
34775;SDS011;20989;52.566;13.346;2023-04-15T08:04:22;2.42;;;2.33;;
34775;SDS011;20989;52.566;13.346;2023-04-15T08:07:23;2.83;;;2.63;;
34775;SDS011;20989;52.566;13.346;2023-04-15T08:10:24;3.15;;;2.75;;
34775;SDS011;20989;52.566;13.346;2023-04-15T08:13:25;2.13;;;2.03;;
34775;SDS011;20989;52.566;13.346;2023-04-15T08:16:26;2.80;;;2.60;;
34775;SDS011;20989;52.566;13.346;2023-04-15T08:19:27;2.38;;;2.28;;
34775;SDS011;20989;52.566;13.346;2023-04-15T08:22:27;2.50;;;2.25;;
34775;SDS011;20989;52.566;13.346;2023-04-15T08:25:28;3.10;;;2.90;;
34775;SDS011;20989;52.566;13.346;2023-04-15T08:28:29;2.83;;;2.63;;
34775;SDS011;20989;52.566;13.346;2023-04-15T08:31:30;2.47;;;2.28;;
34775;SDS011;20989;52.566;13.346;2023-04-15T08:34:31;3.00;;;2.80;;
34775;SDS011;20989;52.566;13.346;2023-04-15T08:37:31;2.42;;;2.33;;
34775;SDS011;20989;52.566;13.346;2023-04-15T08:40:35;2.78;;;2.58;;
34775;SDS011;20989;52.566;13.346;2023-04-15T08:43:48;2.80;;;2.60;;
34775;SDS011;20989;52.566;13.346;2023-04-15T08:47:00;2.42;;;2.33;;
34775;SDS011;20989;52.566;13.346;2023-04-15T08:50:02;2.65;;;2.53;;
34775;SDS011;20989;52.566;13.346;2023-04-15T08:53:04;2.42;;;2.30;;
34775;SDS011;20989;52.566;13.346;2023-04-15T08:56:05;2.70;;;2.60;;
34775;SDS011;20989;52.566;13.346;2023-04-15T08:59:09;2.45;;;2.35;;
34775;SDS011;20989;52.566;13.346;2023-04-15T09:02:10;2.40;;;2.30;;
34775;SDS011;20989;52.566;13.346;2023-04-15T09:05:11;2.72;;;2.53;;
34775;SDS011;20989;52.566;13.346;2023-04-15T09:08:12;2.05;;;1.95;;
34775;SDS011;20989;52.566;13.346;2023-04-15T09:11:12;2.25;;;2.15;;
34775;SDS011;20989;52.566;13.346;2023-04-15T09:14:13;2.35;;;2.25;;
34775;SDS011;20989;52.566;13.346;2023-04-15T09:17:14;2.35;;;2.25;;
34775;SDS011;20989;52.566;13.346;2023-04-15T09:20:18;2.10;;;2.00;;
34775;SDS011;20989;52.566;13.346;2023-04-15T09:23:19;2.60;;;2.40;;
34775;SDS011;20989;52.566;13.346;2023-04-15T09:26:28;2.15;;;2.05;;
34775;SDS011;20989;52.566;13.346;2023-04-15T09:29:33;2.33;;;2.22;;
34775;SDS011;20989;52.566;13.346;2023-04-15T09:32:34;2.67;;;2.47;;
34775;SDS011;20989;52.566;13.346;2023-04-15T09:35:35;2.47;;;2.33;;
34775;SDS011;20989;52.566;13.346;2023-04-15T09:38:36;2.67;;;2.50;;
34775;SDS011;20989;52.566;13.346;2023-04-15T09:42:03;2.58;;;2.42;;
34775;SDS011;20989;52.566;13.346;2023-04-15T09:45:10;2.63;;;2.53;;
34775;SDS011;20989;52.566;13.346;2023-04-15T09:48:18;2.80;;;2.60;;
34775;SDS011;20989;52.566;13.346;2023-04-15T09:51:31;4.45;;;2.75;;
34775;SDS011;20989;52.566;13.346;2023-04-15T09:54:35;4.72;;;3.17;;
34775;SDS011;20989;52.566;13.346;2023-04-15T09:57:37;12.75;;;7.63;;
34775;SDS011;20989;52.566;13.346;2023-04-15T10:00:40;14.93;;;9.15;;
34775;SDS011;20989;52.566;13.346;2023-04-15T10:03:41;26.50;;;13.93;;
34775;SDS011;20989;52.566;13.346;2023-04-15T10:06:42;39.83;;;19.13;;
34775;SDS011;20989;52.566;13.346;2023-04-15T10:09:44;34.85;;;19.20;;
34775;SDS011;20989;52.566;13.346;2023-04-15T10:12:45;36.70;;;17.35;;
34775;SDS011;20989;52.566;13.346;2023-04-15T10:15:50;25.85;;;15.55;;
34775;SDS011;20989;52.566;13.346;2023-04-15T10:18:56;33.22;;;15.15;;
34775;SDS011;20989;52.566;13.346;2023-04-15T10:22:00;31.30;;;14.73;;
34775;SDS011;20989;52.566;13.346;2023-04-15T10:25:01;26.10;;;13.35;;
34775;SDS011;20989;52.566;13.346;2023-04-15T10:28:03;25.98;;;12.90;;
34775;SDS011;20989;52.566;13.346;2023-04-15T10:31:10;20.23;;;11.20;;
34775;SDS011;20989;52.566;13.346;2023-04-15T10:34:15;21.73;;;12.30;;
34775;SDS011;20989;52.566;13.346;2023-04-15T10:37:21;26.02;;;13.48;;
34775;SDS011;20989;52.566;13.346;2023-04-15T10:40:32;22.35;;;12.25;;
34775;SDS011;20989;52.566;13.346;2023-04-15T10:43:33;20.35;;;11.77;;
34775;SDS011;20989;52.566;13.346;2023-04-15T10:46:37;20.38;;;11.80;;
34775;SDS011;20989;52.566;13.346;2023-04-15T10:49:43;20.33;;;11.63;;
34775;SDS011;20989;52.566;13.346;2023-04-15T10:52:49;20.02;;;12.10;;
34775;SDS011;20989;52.566;13.346;2023-04-15T10:55:51;19.65;;;10.68;;
34775;SDS011;20989;52.566;13.346;2023-04-15T10:58:52;16.98;;;11.35;;
34775;SDS011;20989;52.566;13.346;2023-04-15T11:01:53;18.20;;;11.13;;
34775;SDS011;20989;52.566;13.346;2023-04-15T11:04:56;13.88;;;9.50;;
34775;SDS011;20989;52.566;13.346;2023-04-15T11:07:57;13.57;;;9.50;;
34775;SDS011;20989;52.566;13.346;2023-04-15T11:10:58;16.50;;;9.77;;
34775;SDS011;20989;52.566;13.346;2023-04-15T11:13:59;17.20;;;10.90;;
34775;SDS011;20989;52.566;13.346;2023-04-15T11:17:01;18.13;;;10.43;;
34775;SDS011;20989;52.566;13.346;2023-04-15T11:20:03;16.77;;;9.65;;
34775;SDS011;20989;52.566;13.346;2023-04-15T11:23:05;14.27;;;9.93;;
34775;SDS011;20989;52.566;13.346;2023-04-15T11:26:08;14.32;;;9.45;;
34775;SDS011;20989;52.566;13.346;2023-04-15T11:29:16;15.30;;;9.60;;
34775;SDS011;20989;52.566;13.346;2023-04-15T11:32:17;15.25;;;9.15;;
34775;SDS011;20989;52.566;13.346;2023-04-15T11:35:17;13.57;;;9.60;;
34775;SDS011;20989;52.566;13.346;2023-04-15T11:38:18;15.07;;;9.02;;
34775;SDS011;20989;52.566;13.346;2023-04-15T11:41:19;14.10;;;8.65;;
34775;SDS011;20989;52.566;13.346;2023-04-15T11:44:21;13.77;;;8.68;;
34775;SDS011;20989;52.566;13.346;2023-04-15T11:47:22;12.75;;;8.52;;
34775;SDS011;20989;52.566;13.346;2023-04-15T11:50:23;13.73;;;9.07;;
34775;SDS011;20989;52.566;13.346;2023-04-15T11:53:24;13.68;;;7.78;;
34775;SDS011;20989;52.566;13.346;2023-04-15T11:56:38;11.60;;;8.15;;
34775;SDS011;20989;52.566;13.346;2023-04-15T11:59:42;10.55;;;7.40;;
34775;SDS011;20989;52.566;13.346;2023-04-15T12:02:42;19.20;;;7.50;;
34775;SDS011;20989;52.566;13.346;2023-04-15T12:06:02;13.27;;;7.72;;
34775;SDS011;20989;52.566;13.346;2023-04-15T12:09:18;16.42;;;7.68;;
34775;SDS011;20989;52.566;13.346;2023-04-15T12:12:19;12.05;;;7.50;;
34775;SDS011;20989;52.566;13.346;2023-04-15T12:15:23;10.98;;;7.45;;
34775;SDS011;20989;52.566;13.346;2023-04-15T12:18:25;11.18;;;7.10;;
34775;SDS011;20989;52.566;13.346;2023-04-15T12:21:26;10.93;;;6.80;;
34775;SDS011;20989;52.566;13.346;2023-04-15T12:24:31;12.20;;;7.45;;
34775;SDS011;20989;52.566;13.346;2023-04-15T12:27:33;11.77;;;6.43;;
34775;SDS011;20989;52.566;13.346;2023-04-15T12:30:35;14.55;;;6.43;;
34775;SDS011;20989;52.566;13.346;2023-04-15T12:33:36;11.30;;;6.75;;
34775;SDS011;20989;52.566;13.346;2023-04-15T12:36:37;12.27;;;6.93;;
34775;SDS011;20989;52.566;13.346;2023-04-15T12:39:38;9.02;;;6.55;;
34775;SDS011;20989;52.566;13.346;2023-04-15T12:42:40;9.30;;;6.03;;
34775;SDS011;20989;52.566;13.346;2023-04-15T12:45:41;8.00;;;5.95;;
34775;SDS011;20989;52.566;13.346;2023-04-15T12:48:42;9.25;;;5.85;;
34775;SDS011;20989;52.566;13.346;2023-04-15T12:51:42;8.65;;;6.20;;
34775;SDS011;20989;52.566;13.346;2023-04-15T12:54:43;11.50;;;6.15;;
34775;SDS011;20989;52.566;13.346;2023-04-15T12:57:44;11.38;;;5.40;;
34775;SDS011;20989;52.566;13.346;2023-04-15T13:00:44;8.73;;;5.63;;
34775;SDS011;20989;52.566;13.346;2023-04-15T13:03:45;7.13;;;5.72;;
34775;SDS011;20989;52.566;13.346;2023-04-15T13:06:47;8.43;;;5.35;;
34775;SDS011;20989;52.566;13.346;2023-04-15T13:09:47;6.25;;;4.45;;
34775;SDS011;20989;52.566;13.346;2023-04-15T13:12:48;8.05;;;5.43;;
34775;SDS011;20989;52.566;13.346;2023-04-15T13:15:52;5.38;;;4.80;;
34775;SDS011;20989;52.566;13.346;2023-04-15T13:18:53;5.80;;;5.00;;
34775;SDS011;20989;52.566;13.346;2023-04-15T13:21:53;7.85;;;4.57;;
34775;SDS011;20989;52.566;13.346;2023-04-15T13:24:54;6.38;;;5.28;;
34775;SDS011;20989;52.566;13.346;2023-04-15T13:27:55;7.70;;;5.00;;
34775;SDS011;20989;52.566;13.346;2023-04-15T13:30:56;5.47;;;4.75;;
34775;SDS011;20989;52.566;13.346;2023-04-15T13:33:57;5.53;;;5.03;;
34775;SDS011;20989;52.566;13.346;2023-04-15T13:36:57;8.23;;;5.20;;
34775;SDS011;20989;52.566;13.346;2023-04-15T13:39:58;8.43;;;4.72;;
34775;SDS011;20989;52.566;13.346;2023-04-15T13:42:59;9.25;;;4.85;;
34775;SDS011;20989;52.566;13.346;2023-04-15T13:45:59;10.50;;;4.45;;
34775;SDS011;20989;52.566;13.346;2023-04-15T13:49:00;9.18;;;5.00;;
34775;SDS011;20989;52.566;13.346;2023-04-15T13:52:01;10.35;;;5.68;;
34775;SDS011;20989;52.566;13.346;2023-04-15T13:55:02;6.70;;;5.70;;
34775;SDS011;20989;52.566;13.346;2023-04-15T13:58:03;12.88;;;6.25;;
34775;SDS011;20989;52.566;13.346;2023-04-15T14:01:04;10.20;;;6.18;;
34775;SDS011;20989;52.566;13.346;2023-04-15T14:04:05;11.63;;;5.90;;
34775;SDS011;20989;52.566;13.346;2023-04-15T14:07:06;14.38;;;6.15;;
34775;SDS011;20989;52.566;13.346;2023-04-15T14:10:06;12.25;;;6.35;;
34775;SDS011;20989;52.566;13.346;2023-04-15T14:13:07;15.77;;;7.50;;
34775;SDS011;20989;52.566;13.346;2023-04-15T14:16:08;11.88;;;5.78;;
34775;SDS011;20989;52.566;13.346;2023-04-15T14:19:08;10.90;;;5.90;;
34775;SDS011;20989;52.566;13.346;2023-04-15T14:22:09;8.10;;;5.90;;
34775;SDS011;20989;52.566;13.346;2023-04-15T14:25:10;12.80;;;6.22;;
34775;SDS011;20989;52.566;13.346;2023-04-15T14:28:10;6.57;;;5.97;;
34775;SDS011;20989;52.566;13.346;2023-04-15T14:31:11;6.57;;;5.80;;
34775;SDS011;20989;52.566;13.346;2023-04-15T14:34:13;6.45;;;5.93;;
34775;SDS011;20989;52.566;13.346;2023-04-15T14:37:13;6.90;;;5.65;;
34775;SDS011;20989;52.566;13.346;2023-04-15T14:40:14;9.43;;;5.70;;
34775;SDS011;20989;52.566;13.346;2023-04-15T14:43:14;5.95;;;5.45;;
34775;SDS011;20989;52.566;13.346;2023-04-15T14:46:16;8.40;;;5.75;;
34775;SDS011;20989;52.566;13.346;2023-04-15T14:49:16;7.53;;;5.70;;
34775;SDS011;20989;52.566;13.346;2023-04-15T14:52:17;20.15;;;6.70;;
34775;SDS011;20989;52.566;13.346;2023-04-15T14:55:17;14.82;;;6.00;;
34775;SDS011;20989;52.566;13.346;2023-04-15T14:58:18;9.27;;;5.80;;
34775;SDS011;20989;52.566;13.346;2023-04-15T15:01:19;8.68;;;5.30;;
34775;SDS011;20989;52.566;13.346;2023-04-15T15:04:20;10.20;;;5.50;;
34775;SDS011;20989;52.566;13.346;2023-04-15T15:07:21;13.02;;;5.53;;
34775;SDS011;20989;52.566;13.346;2023-04-15T15:10:22;8.65;;;4.70;;
34775;SDS011;20989;52.566;13.346;2023-04-15T15:13:23;9.68;;;5.10;;
34775;SDS011;20989;52.566;13.346;2023-04-15T15:16:24;8.98;;;4.97;;
34775;SDS011;20989;52.566;13.346;2023-04-15T15:19:25;15.57;;;4.55;;
34775;SDS011;20989;52.566;13.346;2023-04-15T15:22:25;11.63;;;5.25;;
34775;SDS011;20989;52.566;13.346;2023-04-15T15:25:26;12.10;;;5.07;;
34775;SDS011;20989;52.566;13.346;2023-04-15T15:28:27;9.65;;;4.90;;
34775;SDS011;20989;52.566;13.346;2023-04-15T15:31:28;9.80;;;4.47;;
34775;SDS011;20989;52.566;13.346;2023-04-15T15:34:28;7.35;;;4.05;;
34775;SDS011;20989;52.566;13.346;2023-04-15T15:37:29;12.85;;;4.43;;
34775;SDS011;20989;52.566;13.346;2023-04-15T15:40:30;11.75;;;4.78;;
34775;SDS011;20989;52.566;13.346;2023-04-15T15:43:31;10.77;;;4.70;;
34775;SDS011;20989;52.566;13.346;2023-04-15T15:46:31;11.70;;;4.35;;
34775;SDS011;20989;52.566;13.346;2023-04-15T15:49:32;8.68;;;4.07;;
34775;SDS011;20989;52.566;13.346;2023-04-15T15:52:33;9.95;;;5.05;;
34775;SDS011;20989;52.566;13.346;2023-04-15T15:55:34;6.65;;;3.42;;
34775;SDS011;20989;52.566;13.346;2023-04-15T15:58:34;5.30;;;4.13;;
34775;SDS011;20989;52.566;13.346;2023-04-15T16:01:35;5.30;;;4.25;;
34775;SDS011;20989;52.566;13.346;2023-04-15T16:04:36;11.23;;;4.00;;
34775;SDS011;20989;52.566;13.346;2023-04-15T16:07:37;8.50;;;4.07;;
34775;SDS011;20989;52.566;13.346;2023-04-15T16:10:38;7.03;;;3.42;;
34775;SDS011;20989;52.566;13.346;2023-04-15T16:13:38;10.77;;;4.05;;
34775;SDS011;20989;52.566;13.346;2023-04-15T16:16:39;4.60;;;3.80;;
34775;SDS011;20989;52.566;13.346;2023-04-15T16:19:40;10.23;;;3.30;;
34775;SDS011;20989;52.566;13.346;2023-04-15T16:22:40;7.38;;;4.13;;
34775;SDS011;20989;52.566;13.346;2023-04-15T16:25:41;5.57;;;3.60;;
34775;SDS011;20989;52.566;13.346;2023-04-15T16:28:43;7.05;;;3.42;;
34775;SDS011;20989;52.566;13.346;2023-04-15T16:31:45;6.13;;;3.78;;
34775;SDS011;20989;52.566;13.346;2023-04-15T16:34:46;6.10;;;3.38;;
34775;SDS011;20989;52.566;13.346;2023-04-15T16:37:47;7.32;;;3.60;;
34775;SDS011;20989;52.566;13.346;2023-04-15T16:40:47;9.52;;;3.38;;
34775;SDS011;20989;52.566;13.346;2023-04-15T16:43:48;4.15;;;3.10;;
34775;SDS011;20989;52.566;13.346;2023-04-15T16:46:49;4.05;;;3.47;;
34775;SDS011;20989;52.566;13.346;2023-04-15T16:49:49;3.38;;;3.08;;
34775;SDS011;20989;52.566;13.346;2023-04-15T16:52:50;5.25;;;3.00;;
34775;SDS011;20989;52.566;13.346;2023-04-15T16:55:51;5.05;;;2.83;;
34775;SDS011;20989;52.566;13.346;2023-04-15T16:58:52;6.65;;;3.20;;
34775;SDS011;20989;52.566;13.346;2023-04-15T17:01:53;3.50;;;3.05;;
34775;SDS011;20989;52.566;13.346;2023-04-15T17:04:54;5.20;;;3.08;;
34775;SDS011;20989;52.566;13.346;2023-04-15T17:07:55;3.75;;;2.70;;
34775;SDS011;20989;52.566;13.346;2023-04-15T17:10:56;4.30;;;3.17;;
34775;SDS011;20989;52.566;13.346;2023-04-15T17:13:57;4.93;;;2.83;;
34775;SDS011;20989;52.566;13.346;2023-04-15T17:16:58;2.95;;;2.50;;
34775;SDS011;20989;52.566;13.346;2023-04-15T17:19:58;3.92;;;2.58;;
34775;SDS011;20989;52.566;13.346;2023-04-15T17:22:59;3.55;;;2.38;;
34775;SDS011;20989;52.566;13.346;2023-04-15T17:26:00;3.55;;;2.50;;
34775;SDS011;20989;52.566;13.346;2023-04-15T17:29:00;4.88;;;3.08;;
34775;SDS011;20989;52.566;13.346;2023-04-15T17:32:01;3.90;;;2.85;;
34775;SDS011;20989;52.566;13.346;2023-04-15T17:35:02;7.93;;;3.63;;
34775;SDS011;20989;52.566;13.346;2023-04-15T17:38:05;4.15;;;2.63;;
34775;SDS011;20989;52.566;13.346;2023-04-15T17:41:06;2.55;;;2.35;;
34775;SDS011;20989;52.566;13.346;2023-04-15T17:44:06;2.78;;;2.58;;
34775;SDS011;20989;52.566;13.346;2023-04-15T17:47:07;2.83;;;2.63;;
34775;SDS011;20989;52.566;13.346;2023-04-15T17:50:08;2.70;;;2.50;;
34775;SDS011;20989;52.566;13.346;2023-04-15T17:53:08;2.72;;;2.53;;
34775;SDS011;20989;52.566;13.346;2023-04-15T17:56:09;2.60;;;2.40;;